createdAt,value
2022-12-25T00:00:10.475Z,101467.22
2022-12-25T00:03:35.640Z,101474.72
2022-12-25T00:06:57.451Z,101468.22
2022-12-25T00:10:20.461Z,101479.31
2022-12-25T00:13:42.871Z,101471.91
2022-12-25T00:17:04.869Z,101474.25
2022-12-25T00:20:26.124Z,101471.47
2022-12-25T00:23:48.313Z,101474.97
2022-12-25T00:27:11.464Z,101476.66
2022-12-25T00:30:33.292Z,101475.72
2022-12-25T00:33:54.879Z,101475.91
2022-12-25T00:37:16.567Z,101484.78
2022-12-25T00:40:43.923Z,101480.44
2022-12-25T00:44:07.194Z,101482.13
2022-12-25T00:47:29.419Z,101483.06
2022-12-25T00:50:54.784Z,101492.91
2022-12-25T00:54:16.684Z,101495.72
2022-12-25T00:57:38.027Z,101494.09
2022-12-25T01:01:01.500Z,101493.50
2022-12-25T01:04:22.896Z,101499.97
2022-12-25T01:07:44.609Z,101509.97
2022-12-25T01:11:07.729Z,101522.59
2022-12-25T01:14:29.227Z,101529.16
2022-12-25T01:17:52.224Z,101531.28
2022-12-25T01:21:16.703Z,101537.84
2022-12-25T01:24:38.194Z,101528.59
2022-12-25T01:27:59.976Z,101537.78
2022-12-25T01:31:23.589Z,101544.31
2022-12-25T01:34:51.984Z,101556.16
2022-12-25T01:38:17.248Z,101560.84
2022-12-25T01:41:39.124Z,101561.28
2022-12-25T01:45:35.821Z,101567.06
2022-12-25T01:49:00.375Z,101577.00
2022-12-25T01:52:26.101Z,101591.31
2022-12-25T01:55:50.753Z,101581.13
2022-12-25T01:59:14.808Z,101577.06
2022-12-25T02:02:37.335Z,101570.38
2022-12-25T02:06:00.430Z,101564.63
2022-12-25T02:09:23.448Z,101572.97
2022-12-25T02:12:46.431Z,101581.31
2022-12-25T02:16:14.401Z,101589.59
2022-12-25T02:19:57.173Z,101591.78
2022-12-25T02:23:42.155Z,101586.91
2022-12-25T02:27:20.615Z,101585.44
2022-12-25T02:30:47.393Z,101585.69
2022-12-25T02:34:14.658Z,101585.06
2022-12-25T02:37:41.844Z,101597.50
2022-12-25T02:41:09.250Z,101592.59
2022-12-25T02:44:49.851Z,101601.72
2022-12-25T02:48:32.148Z,101608.19
2022-12-25T02:52:15.787Z,101616.44
2022-12-25T02:55:57.501Z,101614.06
2022-12-25T02:59:38.626Z,101623.19
2022-12-25T03:03:18.918Z,101620.75
2022-12-25T03:06:46.983Z,101627.22
2022-12-25T03:10:30.613Z,101617.72
2022-12-25T03:13:54.960Z,101606.56
2022-12-25T03:17:16.030Z,101619.06
2022-12-25T03:20:58.519Z,101613.03
2022-12-25T03:24:38.912Z,101616.78
2022-12-25T03:28:01.416Z,101629.25
2022-12-25T03:31:29.714Z,101629.50
2022-12-25T03:35:17.004Z,101636.75
2022-12-25T03:39:05.367Z,101634.34
2022-12-25T03:42:53.760Z,101631.13
2022-12-25T03:46:50.590Z,101636.63
2022-12-25T03:50:35.288Z,101633.28
2022-12-25T03:54:18.464Z,101636.09
2022-12-25T03:58:07.915Z,101645.94
2022-12-25T04:01:46.161Z,101650.53
2022-12-25T04:05:26.052Z,101646.25
2022-12-25T04:09:04.751Z,101663.03
2022-12-25T04:12:43.601Z,101676.06
2022-12-25T04:16:24.958Z,101668.81
2022-12-25T04:20:04.037Z,101680.06
2022-12-25T04:23:43.192Z,101688.94
2022-12-25T04:27:22.465Z,101689.00
2022-12-25T04:31:01.507Z,101696.84
2022-12-25T04:34:50.019Z,101702.78
2022-12-25T04:38:11.585Z,101700.69
2022-12-25T04:41:33.098Z,101710.31
2022-12-25T04:44:54.727Z,101710.34
2022-12-25T04:48:16.492Z,101723.53
2022-12-25T04:51:39.548Z,101713.00
2022-12-25T04:55:01.280Z,101713.00
2022-12-25T04:58:22.935Z,101719.13
2022-12-25T05:01:44.803Z,101717.25
2022-12-25T05:05:08.550Z,101717.91
2022-12-25T05:08:32.674Z,101710.84
2022-12-25T05:11:54.268Z,101708.97
2022-12-25T05:15:16.161Z,101701.00
2022-12-25T05:18:37.671Z,101698.19
2022-12-25T05:21:59.443Z,101699.75
2022-12-25T05:25:22.601Z,101704.13
2022-12-25T05:28:44.260Z,101690.78
2022-12-25T05:32:06.777Z,101682.66
2022-12-25T05:35:28.514Z,101687.75
2022-12-25T05:38:51.145Z,101685.84
2022-12-25T05:42:14.703Z,101690.06
2022-12-25T05:45:36.750Z,101689.06
2022-12-25T05:48:58.376Z,101688.94
2022-12-25T05:52:19.967Z,101687.84
2022-12-25T05:55:44.077Z,101698.38
2022-12-25T05:59:06.871Z,101699.16
2022-12-25T06:02:28.375Z,101689.41
2022-12-25T06:05:52.032Z,101699.81
2022-12-25T06:09:14.255Z,101697.97
2022-12-25T06:12:35.711Z,101689.00
2022-12-25T06:15:59.135Z,101680.97
2022-12-25T06:19:21.134Z,101680.88
2022-12-25T06:22:42.676Z,101679.81
2022-12-25T06:26:05.959Z,101669.25
2022-12-25T06:29:27.915Z,101659.56
2022-12-25T06:32:51.091Z,101669.16
2022-12-25T06:36:14.824Z,101683.28
2022-12-25T06:39:36.744Z,101689.44
2022-12-25T06:42:58.485Z,101697.34
2022-12-25T06:46:20.997Z,101691.13
2022-12-25T06:49:44.260Z,101689.47
2022-12-25T06:53:05.860Z,101686.78
2022-12-25T06:56:29.101Z,101684.34
2022-12-25T06:59:55.097Z,101695.88
2022-12-25T07:03:22.068Z,101696.88
2022-12-25T07:06:45.004Z,101689.94
2022-12-25T07:10:08.328Z,101691.78
2022-12-25T07:13:30.131Z,101693.63
2022-12-25T07:16:51.841Z,101705.22
2022-12-25T07:20:13.599Z,101713.28
2022-12-25T07:23:36.405Z,101716.78
2022-12-25T07:26:58.117Z,101719.59
2022-12-25T07:30:20.017Z,101735.53
2022-12-25T07:33:42.153Z,101739.09
2022-12-25T07:37:03.964Z,101748.75
2022-12-25T07:40:27.383Z,101749.75
2022-12-25T07:43:51.519Z,101750.72
2022-12-25T07:47:15.650Z,101748.09
2022-12-25T07:50:37.387Z,101750.72
2022-12-25T07:53:59.037Z,101745.53
2022-12-25T07:57:21.699Z,101749.09
2022-12-25T08:00:43.435Z,101740.31
2022-12-25T08:04:05.281Z,101747.38
2022-12-25T08:07:27.329Z,101752.78
2022-12-25T08:10:49.347Z,101751.84
2022-12-25T08:14:12.219Z,101743.97
2022-12-25T08:17:35.762Z,101749.09
2022-12-25T08:20:57.559Z,101753.56
2022-12-25T08:24:19.569Z,101764.03
2022-12-25T08:27:41.111Z,101769.38
2022-12-25T08:31:09.885Z,101769.38
2022-12-25T08:34:31.248Z,101767.53
2022-12-25T08:37:53.107Z,101772.69
2022-12-25T08:41:16.205Z,101763.78
2022-12-25T08:44:37.822Z,101766.38
2022-12-25T08:48:00.975Z,101781.38
2022-12-25T08:51:22.953Z,101786.66
2022-12-25T08:54:44.717Z,101788.25
2022-12-25T08:58:06.004Z,101783.78
2022-12-25T09:01:27.908Z,101778.41
2022-12-25T09:04:50.839Z,101768.63
2022-12-25T09:08:12.690Z,101757.03
2022-12-25T09:11:34.332Z,101738.53
2022-12-25T09:14:56.156Z,101738.31
2022-12-25T09:18:17.872Z,101729.34
2022-12-25T09:21:41.031Z,101725.75
2022-12-25T09:25:02.473Z,101722.84
2022-12-25T09:28:24.258Z,101716.44
2022-12-25T09:31:46.147Z,101704.84
2022-12-25T09:35:08.343Z,101710.97
2022-12-25T09:38:31.836Z,101709.06
2022-12-25T09:41:57.351Z,101701.94
2022-12-25T09:45:25.738Z,101690.47
2022-12-25T09:48:51.763Z,101677.13
2022-12-25T09:52:15.800Z,101675.38
2022-12-25T09:55:44.927Z,101685.84
2022-12-25T09:59:18.501Z,101693.81
2022-12-25T10:03:03.849Z,101689.41
2022-12-25T10:06:32.009Z,101687.63
2022-12-25T10:10:03.786Z,101685.78
2022-12-25T10:13:47.953Z,101703.38
2022-12-25T10:17:27.278Z,101705.22
2022-12-25T10:20:53.025Z,101705.34
2022-12-25T10:24:23.312Z,101707.16
2022-12-25T10:27:45.256Z,101710.59
2022-12-25T10:31:19.924Z,101722.06
2022-12-25T10:34:43.572Z,101707.06
2022-12-25T10:38:12.195Z,101706.22
2022-12-25T10:41:50.227Z,101694.81
2022-12-25T10:45:12.271Z,101677.22
2022-12-25T10:48:35.449Z,101676.28
2022-12-25T10:51:56.938Z,101670.00
2022-12-25T10:55:28.136Z,101666.44
2022-12-25T10:58:50.322Z,101650.63
2022-12-25T11:02:17.562Z,101645.34
2022-12-25T11:05:40.945Z,101660.31
2022-12-25T11:09:04.015Z,101660.31
2022-12-25T11:12:30.846Z,101669.22
2022-12-25T11:16:04.480Z,101668.44
2022-12-25T11:19:28.981Z,101669.31
2022-12-25T11:22:52.400Z,101683.41
2022-12-25T11:26:13.910Z,101680.69
2022-12-25T11:29:43.581Z,101683.34
2022-12-25T11:33:11.888Z,101670.16
2022-12-25T11:36:44.595Z,101656.03
2022-12-25T11:40:14.734Z,101646.41
2022-12-25T11:43:42.012Z,101657.75
2022-12-25T11:47:12.949Z,101649.81
2022-12-25T11:50:38.899Z,101639.13
2022-12-25T11:54:05.265Z,101633.03
2022-12-25T11:57:32.254Z,101634.78
2022-12-25T12:00:56.439Z,101615.47
2022-12-25T12:04:29.453Z,101583.75
2022-12-25T12:07:58.274Z,101573.97
2022-12-25T12:11:22.651Z,101566.97
2022-12-25T12:14:50.847Z,101551.94
2022-12-25T12:18:22.769Z,101547.53
2022-12-25T12:21:50.543Z,101550.09
2022-12-25T12:25:18.324Z,101549.97
2022-12-25T12:28:46.752Z,101556.97
2022-12-25T12:32:28.880Z,101571.84
2022-12-25T12:35:50.744Z,101571.72
2022-12-25T12:39:24.326Z,101572.34
2022-12-25T12:42:50.537Z,101581.19
2022-12-25T12:46:18.229Z,101584.63
2022-12-25T12:49:42.187Z,101579.19
2022-12-25T12:53:19.643Z,101566.84
2022-12-25T12:56:41.292Z,101558.81
2022-12-25T13:00:09.903Z,101548.44
2022-12-25T13:03:49.226Z,101540.44
2022-12-25T13:07:23.377Z,101552.81
2022-12-25T13:10:47.948Z,101550.06
2022-12-25T13:14:16.062Z,101549.28
2022-12-25T13:17:38.230Z,101550.31
2022-12-25T13:21:02.447Z,101551.09
2022-12-25T13:24:27.956Z,101550.16
2022-12-25T13:27:56.913Z,101534.34
2022-12-25T13:31:20.562Z,101535.41
2022-12-25T13:34:43.524Z,101545.03
2022-12-25T13:38:11.105Z,101541.63
2022-12-25T13:41:59.954Z,101555.72
2022-12-25T13:45:24.779Z,101549.72
2022-12-25T13:48:56.145Z,101527.84
2022-12-25T13:52:21.108Z,101519.44
2022-12-25T13:55:45.285Z,101506.31
2022-12-25T13:59:14.685Z,101505.38
2022-12-25T14:02:39.039Z,101505.47
2022-12-25T14:06:02.273Z,101499.34
2022-12-25T14:09:24.477Z,101498.50
2022-12-25T14:12:49.452Z,101497.63
2022-12-25T14:16:12.586Z,101486.22
2022-12-25T14:19:35.339Z,101480.09
2022-12-25T14:22:59.086Z,101485.44
2022-12-25T14:26:23.558Z,101484.59
2022-12-25T14:29:47.629Z,101488.09
2022-12-25T14:33:16.977Z,101488.09
2022-12-25T14:36:39.005Z,101490.72
2022-12-25T14:40:02.253Z,101495.06
2022-12-25T14:43:26.932Z,101495.13
2022-12-25T14:46:48.713Z,101496.84
2022-12-25T14:50:25.622Z,101484.44
2022-12-25T14:53:50.336Z,101476.53
2022-12-25T14:57:19.115Z,101476.47
2022-12-25T15:00:40.850Z,101462.25
2022-12-25T15:04:08.525Z,101453.50
2022-12-25T15:07:32.951Z,101471.03
2022-12-25T15:11:01.834Z,101460.53
2022-12-25T15:14:25.377Z,101444.56
2022-12-25T15:17:47.112Z,101429.59
2022-12-25T15:21:15.697Z,101436.59
2022-12-25T15:24:38.808Z,101426.91
2022-12-25T15:28:00.242Z,101417.13
2022-12-25T15:31:25.231Z,101419.78
2022-12-25T15:34:49.648Z,101415.13
2022-12-25T15:38:11.572Z,101403.63
2022-12-25T15:41:54.473Z,101407.88
2022-12-25T15:45:21.397Z,101400.69
2022-12-25T15:48:43.274Z,101412.84
2022-12-25T15:52:05.205Z,101422.41
2022-12-25T15:55:26.757Z,101424.13
2022-12-25T15:58:49.848Z,101418.78
2022-12-25T16:02:16.605Z,101409.06
2022-12-25T16:05:38.259Z,101404.50
2022-12-25T16:08:59.892Z,101408.69
2022-12-25T16:12:21.739Z,101406.66
2022-12-25T16:15:45.046Z,101399.47
2022-12-25T16:19:07.039Z,101397.59
2022-12-25T16:22:28.469Z,101393.00
2022-12-25T16:25:50.534Z,101378.69
2022-12-25T16:29:12.682Z,101373.19
2022-12-25T16:32:35.569Z,101360.75
2022-12-25T16:35:57.499Z,101363.25
2022-12-25T16:39:19.204Z,101357.78
2022-12-25T16:42:40.467Z,101353.13
2022-12-25T16:46:02.356Z,101346.84
2022-12-25T16:49:25.313Z,101339.69
2022-12-25T16:52:47.227Z,101345.66
2022-12-25T16:56:10.740Z,101340.13
2022-12-25T16:59:33.022Z,101322.31
2022-12-25T17:02:57.658Z,101306.31
2022-12-25T17:06:23.107Z,101297.34
2022-12-25T17:09:47.669Z,101290.94
2022-12-25T17:13:09.443Z,101291.66
2022-12-25T17:16:33.558Z,101281.78
2022-12-25T17:19:55.730Z,101266.69
2022-12-25T17:23:18.928Z,101260.28
2022-12-25T17:26:40.730Z,101266.22
2022-12-25T17:30:02.632Z,101266.22
2022-12-25T17:33:24.388Z,101261.66
2022-12-25T17:36:46.369Z,101253.63
2022-12-25T17:40:11.019Z,101252.34
2022-12-25T17:43:33.486Z,101255.75
2022-12-25T17:46:54.997Z,101247.47
2022-12-25T17:50:16.847Z,101245.59
2022-12-25T17:53:40.034Z,101237.47
2022-12-25T17:57:02.669Z,101232.00
2022-12-25T18:00:24.341Z,101240.69
2022-12-25T18:03:46.996Z,101247.63
2022-12-25T18:07:08.379Z,101237.72
2022-12-25T18:10:29.916Z,101219.03
2022-12-25T18:13:53.526Z,101214.44
2022-12-25T18:17:14.782Z,101209.91
2022-12-25T18:20:40.307Z,101186.88
2022-12-25T18:24:03.921Z,101184.97
2022-12-25T18:27:25.387Z,101160.16
2022-12-25T18:30:48.600Z,101161.75
2022-12-25T18:34:09.969Z,101164.19
2022-12-25T18:37:34.472Z,101134.28
2022-12-25T18:41:01.135Z,101108.56
2022-12-25T18:44:22.957Z,101104.03
2022-12-25T18:47:46.365Z,101108.31
2022-12-25T18:51:12.145Z,101102.16
2022-12-25T18:54:35.415Z,101101.13
2022-12-25T18:57:57.021Z,101095.63
2022-12-25T19:01:20.690Z,101089.41
2022-12-25T19:04:44.100Z,101080.41
2022-12-25T19:08:05.747Z,101077.56
2022-12-25T19:11:27.181Z,101074.75
2022-12-25T19:14:48.969Z,101073.81
2022-12-25T19:18:11.038Z,101063.88
2022-12-25T19:21:33.928Z,101048.66
2022-12-25T19:24:55.764Z,101045.69
2022-12-25T19:28:17.940Z,101033.06
2022-12-25T19:31:40.630Z,101036.25
2022-12-25T19:35:04.495Z,101026.09
2022-12-25T19:38:27.621Z,101017.00
2022-12-25T19:41:49.611Z,101008.88
2022-12-25T19:45:11.806Z,101017.38
2022-12-25T19:48:34.756Z,101021.53
2022-12-25T19:51:56.590Z,101001.72
2022-12-25T19:55:21.969Z,100971.34
2022-12-25T19:58:43.702Z,100976.34
2022-12-25T20:02:05.602Z,100976.97
2022-12-25T20:05:27.139Z,100985.44
2022-12-25T20:08:50.028Z,100979.03
2022-12-25T20:12:15.049Z,100964.69
2022-12-25T20:15:36.811Z,100956.44
2022-12-25T20:18:59.073Z,100938.53
2022-12-25T20:22:20.257Z,100940.97
2022-12-25T20:25:42.718Z,100928.38
2022-12-25T20:29:05.840Z,100919.25
2022-12-25T20:32:27.688Z,100915.34
2022-12-25T20:35:50.197Z,100910.78
2022-12-25T20:39:12.870Z,100914.03
2022-12-25T20:42:34.388Z,100907.47
2022-12-25T20:45:58.272Z,100903.88
2022-12-25T20:49:19.705Z,100892.09
2022-12-25T20:52:41.464Z,100885.72
2022-12-25T20:56:03.603Z,100881.91
2022-12-25T20:59:24.948Z,100878.06
2022-12-25T21:02:48.216Z,100885.81
2022-12-25T21:06:10.678Z,100885.59
2022-12-25T21:09:32.581Z,100893.09
2022-12-25T21:12:54.285Z,100870.69
2022-12-25T21:16:18.543Z,100861.78
2022-12-25T21:19:41.653Z,100866.91
2022-12-25T21:23:03.431Z,100857.75
2022-12-25T21:26:27.080Z,100854.75
2022-12-25T21:29:48.729Z,100850.19
2022-12-25T21:33:30.277Z,100848.16
2022-12-25T21:36:53.141Z,100831.06
2022-12-25T21:40:16.654Z,100822.88
2022-12-25T21:43:39.602Z,100820.84
2022-12-25T21:47:01.240Z,100822.31
2022-12-25T21:50:40.666Z,100818.31
2022-12-25T21:54:04.288Z,100806.75
2022-12-25T21:57:25.731Z,100803.16
2022-12-25T22:00:47.541Z,100795.69
2022-12-25T22:04:10.159Z,100791.13
2022-12-25T22:07:32.596Z,100789.94
2022-12-25T22:10:55.636Z,100791.28
2022-12-25T22:14:51.297Z,100784.91
2022-12-25T22:18:32.478Z,100791.66
2022-12-25T22:21:54.032Z,100810.03
2022-12-25T22:25:17.191Z,100794.81
2022-12-25T22:28:40.551Z,100799.91
2022-12-25T22:32:02.133Z,100796.28
2022-12-25T22:35:23.806Z,100809.31
2022-12-25T22:38:45.476Z,100794.88
2022-12-25T22:42:06.931Z,100788.34
2022-12-25T22:45:30.087Z,100797.88
2022-12-25T22:48:51.734Z,100790.38
2022-12-25T22:52:13.355Z,100782.31
2022-12-25T22:55:34.617Z,100782.94
2022-12-25T22:58:57.278Z,100765.31
2022-12-25T23:02:20.404Z,100760.84
2022-12-25T23:05:42.462Z,100758.66
2022-12-25T23:09:06.381Z,100757.81
2022-12-25T23:12:45.547Z,100748.75
2022-12-25T23:16:07.897Z,100746.81
2022-12-25T23:19:48.607Z,100745.75
2022-12-25T23:23:32.686Z,100741.25
2022-12-25T23:26:54.186Z,100748.03
2022-12-25T23:30:17.482Z,100745.38
2022-12-25T23:33:39.147Z,100746.13
2022-12-25T23:37:02.501Z,100744.28
2022-12-25T23:40:24.216Z,100740.66
2022-12-25T23:43:46.033Z,100751.06
2022-12-25T23:47:07.592Z,100752.75
2022-12-25T23:50:29.266Z,100738.38
2022-12-25T23:53:52.150Z,100753.34
2022-12-25T23:57:13.688Z,100741.63
